Time;durP1;ratioP1;P1;durP2;ratioP2;P2;SDS_P1;SDS_P2;PMS_P1;PMS_P2;Temp;Humidity;BMP_temperature;BMP_pressure;BME280_temperature;BME280_humidity;BME280_pressure;Samples;Min_cycle;Max_cycle;Signal;HPM_P1;HPM_P2
2021/01/31 00:00:17;;;;;;;73.28;24.85;;;-3267.90;94.20;;;;;;5034087;28;20096;-67
2021/01/31 00:02:43;;;;;;;84.53;24.58;;;-3267.90;94.10;;;;;;5048186;28;20036;-67
2021/01/31 00:05:09;;;;;;;72.35;23.90;;;-3267.80;94.00;;;;;;5053965;28;20040;-67
2021/01/31 00:07:35;;;;;;;66.88;24.38;;;-3267.80;94.00;;;;;;5049933;28;20170;-67
2021/01/31 00:10:01;;;;;;;54.10;23.27;;;-3267.70;94.00;;;;;;5049410;28;20180;-67
2021/01/31 00:12:26;;;;;;;50.03;24.98;;;-3267.70;93.90;;;;;;5049516;28;20025;-68
2021/01/31 00:14:52;;;;;;;48.65;24.95;;;-3267.60;93.80;;;;;;5050657;28;20025;-67
2021/01/31 00:17:17;;;;;;;45.65;25.10;;;-3267.50;93.60;;;;;;5052196;28;20028;-66
2021/01/31 00:19:43;;;;;;;42.65;23.77;;;-3267.50;93.40;;;;;;5050161;28;20112;-66
2021/01/31 00:22:09;;;;;;;41.70;23.33;;;-3267.40;93.20;;;;;;5050478;28;20059;-67
2021/01/31 00:24:34;;;;;;;47.85;23.95;;;-3267.30;92.90;;;;;;5041911;28;20041;-68
2021/01/31 00:27:00;;;;;;;46.17;24.58;;;-3267.20;92.70;;;;;;5054151;28;20062;-66
2021/01/31 00:29:26;;;;;;;51.40;25.30;;;-3267.30;92.90;;;;;;5051257;28;20036;-67
2021/01/31 00:31:51;;;;;;;51.55;24.85;;;-3267.30;92.90;;;;;;5057053;28;20489;-67
2021/01/31 00:34:19;;;;;;;53.60;24.75;;;-3267.30;93.00;;;;;;5045004;28;20021;-66
2021/01/31 00:36:45;;;;;;;44.17;22.05;;;-3267.30;93.00;;;;;;5049778;28;20025;-65
2021/01/31 00:39:12;;;;;;;47.08;22.30;;;-3267.30;92.80;;;;;;5048780;28;20021;-65
2021/01/31 00:41:37;;;;;;;41.15;21.52;;;-3267.20;92.40;;;;;;5050673;28;20033;-66
2021/01/31 00:44:05;;;;;;;43.97;21.08;;;-3267.10;92.20;;;;;;5051093;28;20504;-66
2021/01/31 00:46:36;;;;;;;39.53;20.55;;;-3267.00;92.00;;;;;;5050137;28;20017;-68
2021/01/31 00:49:02;;;;;;;52.47;22.73;;;-3267.00;91.90;;;;;;5049007;28;20107;-66
2021/01/31 00:51:28;;;;;;;53.55;23.88;;;-3266.90;92.00;;;;;;5050240;28;20032;-67
2021/01/31 00:53:53;;;;;;;60.22;23.92;;;-3266.90;92.40;;;;;;5051185;28;20029;-66
2021/01/31 00:56:20;;;;;;;58.70;24.65;;;-3267.10;93.10;;;;;;5051337;28;20083;-67
2021/01/31 00:58:46;;;;;;;61.55;26.30;;;-3267.10;93.40;;;;;;5052114;28;20033;-67
2021/01/31 01:01:13;;;;;;;62.35;25.00;;;-3267.00;93.40;;;;;;5051104;28;20424;-67
2021/01/31 01:03:38;;;;;;;54.35;24.48;;;-3267.00;93.60;;;;;;5052799;28;20392;-66
2021/01/31 01:06:04;;;;;;;53.20;22.80;;;-3266.90;93.50;;;;;;5048743;28;20033;-67
2021/01/31 01:08:29;;;;;;;46.72;21.92;;;-3266.80;93.20;;;;;;5047214;28;20120;-67
2021/01/31 01:13:30;;;;;;;45.78;20.67;;;-3266.70;92.70;;;;;;5023242;28;20053;-62
2021/01/31 01:15:56;;;;;;;42.67;18.77;;;-3266.70;92.40;;;;;;5025174;28;20113;-61
2021/01/31 01:18:21;;;;;;;46.53;21.17;;;-3266.70;92.40;;;;;;5027057;28;20030;-62
2021/01/31 01:20:47;;;;;;;48.60;21.40;;;-3266.70;92.30;;;;;;5026856;28;20074;-63
2021/01/31 01:23:13;;;;;;;68.82;22.88;;;-3266.80;92.70;;;;;;5026494;28;20053;-62
2021/01/31 01:25:39;;;;;;;60.50;22.63;;;-3266.70;92.80;;;;;;5027189;28;20072;-62
2021/01/31 01:28:04;;;;;;;72.88;23.02;;;-3266.50;92.50;;;;;;5031980;28;20037;-62
2021/01/31 01:30:31;;;;;;;111.13;23.27;;;-3266.40;92.20;;;;;;5025163;28;20433;-62
2021/01/31 01:32:58;;;;;;;78.70;23.55;;;-3266.30;92.20;;;;;;5026145;28;20100;-62
2021/01/31 01:35:25;;;;;;;40.92;21.13;;;-3266.30;92.40;;;;;;5025368;28;20132;-62
2021/01/31 01:37:51;;;;;;;47.25;21.63;;;-3266.30;92.70;;;;;;5024781;28;20463;-62
2021/01/31 01:40:30;;;;;;;45.97;20.83;;;-3266.30;92.60;;;;;;5012909;28;20477;-62
2021/01/31 01:42:56;;;;;;;55.10;21.73;;;-3266.30;92.50;;;;;;5028693;28;20389;-62
2021/01/31 01:45:22;;;;;;;37.38;19.38;;;-3266.20;92.30;;;;;;5026334;28;20108;-62
2021/01/31 01:47:54;;;;;;;46.17;20.20;;;-3266.20;92.00;;;;;;5025881;28;20034;-62
2021/01/31 01:50:28;;;;;;;42.05;19.40;;;-3266.10;91.80;;;;;;5022711;28;20441;-62
2021/01/31 01:52:57;;;;;;;39.00;18.38;;;-3266.00;91.70;;;;;;5027031;28;20066;-62
2021/01/31 01:55:24;;;;;;;39.08;17.80;;;-3266.00;91.50;;;;;;5025033;28;20406;-62
2021/01/31 01:57:58;;;;;;;42.17;18.92;;;-3265.90;91.10;;;;;;5027288;28;20406;-62
2021/01/31 02:00:24;;;;;;;45.05;18.98;;;-3265.80;90.80;;;;;;5023520;28;20041;-62
2021/01/31 02:03:03;;;;;;;41.92;18.80;;;-3265.80;90.80;;;;;;5028959;28;20197;-62
2021/01/31 02:05:29;;;;;;;35.35;17.50;;;-3265.80;90.90;;;;;;5007580;28;20121;-62
2021/01/31 02:07:55;;;;;;;42.53;19.02;;;-3265.70;90.80;;;;;;5026619;28;20132;-62
2021/01/31 02:10:23;;;;;;;36.97;17.45;;;-3265.60;90.80;;;;;;5024033;28;20056;-62
2021/01/31 02:12:53;;;;;;;39.67;17.83;;;-3265.60;90.60;;;;;;5036365;28;20175;-62
2021/01/31 02:15:20;;;;;;;37.28;17.65;;;-3265.50;90.40;;;;;;5033397;28;20032;-62
2021/01/31 02:18:13;;;;;;;40.85;17.45;;;-3265.40;90.40;;;;;;5026735;28;20052;-62
2021/01/31 02:21:11;;;;;;;41.42;16.48;;;-3265.30;90.50;;;;;;5020811;28;20548;-62
2021/01/31 02:24:04;;;;;;;32.55;16.45;;;-3265.40;90.60;;;;;;5025399;28;20191;-62
2021/01/31 02:26:38;;;;;;;41.25;17.30;;;-3265.30;90.60;;;;;;5027140;28;20066;-62
2021/01/31 02:29:25;;;;;;;40.08;16.85;;;-3265.30;90.50;;;;;;5022297;28;20033;-62
2021/01/31 02:31:56;;;;;;;38.83;18.65;;;-3265.30;90.60;;;;;;5027053;28;20029;-62
2021/01/31 02:34:28;;;;;;;39.03;17.45;;;-3265.30;90.40;;;;;;5025707;28;20134;-62
2021/01/31 02:37:16;;;;;;;39.88;18.10;;;-3265.20;90.30;;;;;;5026595;28;20033;-62
2021/01/31 02:40:03;;;;;;;33.13;16.35;;;-3265.20;90.20;;;;;;5023625;28;20025;-62
2021/01/31 02:42:35;;;;;;;39.85;15.70;;;-3265.10;90.50;;;;;;5026661;28;20112;-62
2021/01/31 02:45:25;;;;;;;38.78;18.23;;;-3265.10;90.70;;;;;;5025007;28;20038;-62
2021/01/31 02:48:13;;;;;;;29.33;12.90;;;-3265.10;90.80;;;;;;5026360;28;20029;-62
2021/01/31 02:50:43;;;;;;;44.63;17.23;;;-3265.10;90.90;;;;;;5021548;28;20080;-62
2021/01/31 02:53:21;;;;;;;33.42;16.85;;;-3265.00;90.80;;;;;;5026827;28;20035;-62
2021/01/31 02:55:53;;;;;;;36.40;16.10;;;-3265.00;90.60;;;;;;5023306;28;20120;-62
2021/01/31 02:58:26;;;;;;;37.42;16.23;;;-3265.00;90.70;;;;;;5024741;28;20092;-62
2021/01/31 03:00:54;;;;;;;38.40;18.15;;;-3265.00;90.60;;;;;;5024372;28;20130;-61
2021/01/31 03:03:29;;;;;;;29.95;14.27;;;-3264.90;90.60;;;;;;5031538;28;20025;-62
2021/01/31 03:05:56;;;;;;;34.10;15.00;;;-3264.90;90.50;;;;;;5033484;28;20048;-62
2021/01/31 03:08:27;;;;;;;36.25;16.42;;;-3264.90;90.50;;;;;;5022277;28;20494;-62
2021/01/31 03:11:10;;;;;;;38.92;17.88;;;-3264.90;90.50;;;;;;5023686;28;20350;-62
2021/01/31 03:13:47;;;;;;;38.47;16.77;;;-3264.90;90.30;;;;;;5011379;28;20029;-62
2021/01/31 03:16:27;;;;;;;36.75;16.33;;;-3264.80;90.10;;;;;;5025803;28;20033;-62
2021/01/31 03:19:07;;;;;;;28.67;14.52;;;-3264.80;90.00;;;;;;5024271;28;20117;-62
2021/01/31 03:21:34;;;;;;;36.85;16.63;;;-3264.80;89.90;;;;;;5026125;28;20026;-62
2021/01/31 03:24:10;;;;;;;35.70;15.73;;;-3264.80;90.10;;;;;;5024692;28;20091;-62
2021/01/31 03:26:53;;;;;;;34.95;16.02;;;-3264.80;90.20;;;;;;5025286;28;20076;-62
2021/01/31 03:29:19;;;;;;;39.40;16.25;;;-3264.80;90.40;;;;;;5011092;28;20083;-62
2021/01/31 03:32:08;;;;;;;36.65;16.70;;;-3264.80;90.50;;;;;;5022573;28;20504;-62
2021/01/31 03:34:49;;;;;;;35.17;13.80;;;-3264.90;90.60;;;;;;5024200;28;20052;-62
2021/01/31 03:37:15;;;;;;;34.53;16.42;;;-3264.90;90.50;;;;;;5025349;28;20397;-62
2021/01/31 03:39:44;;;;;;;39.13;16.92;;;-3264.90;90.40;;;;;;5024123;28;20086;-62
2021/01/31 03:42:11;;;;;;;40.15;17.77;;;-3264.90;90.60;;;;;;5026127;28;20104;-62
2021/01/31 03:44:42;;;;;;;38.90;15.52;;;-3264.90;90.60;;;;;;5022819;28;20401;-63
2021/01/31 03:47:19;;;;;;;;;;;-3264.90;90.50;;;;;;5022548;28;20041;-62
2021/01/31 03:49:55;;;;;;;27.77;14.45;;;-3264.90;90.70;;;;;;5028277;28;20015;-62
2021/01/31 03:52:22;;;;;;;34.13;16.20;;;-3264.90;90.80;;;;;;5023995;28;20030;-62
2021/01/31 03:54:48;;;;;;;36.45;16.42;;;-3264.90;90.70;;;;;;5012573;28;20021;-62
2021/01/31 03:57:30;;;;;;;32.05;13.80;;;-3264.90;90.70;;;;;;5025832;28;20041;-62
2021/01/31 04:00:06;;;;;;;32.92;14.88;;;-3264.90;90.60;;;;;;5015988;28;20186;-62
2021/01/31 04:02:37;;;;;;;34.97;14.48;;;-3265.00;90.70;;;;;;5023736;28;20129;-63
2021/01/31 04:05:05;;;;;;;32.08;14.50;;;-3265.00;91.00;;;;;;5024981;28;20052;-62
2021/01/31 04:07:37;;;;;;;31.67;14.50;;;-3265.00;91.00;;;;;;5024646;28;20481;-62
2021/01/31 04:10:05;;;;;;;32.70;14.07;;;-3264.90;91.10;;;;;;5021928;28;20034;-62
2021/01/31 04:12:34;;;;;;;33.55;13.88;;;-3264.90;91.10;;;;;;5024330;28;20538;-62
2021/01/31 04:15:24;;;;;;;33.30;13.93;;;-3264.90;91.20;;;;;;5024264;28;20131;-63
2021/01/31 04:17:50;;;;;;;29.00;13.57;;;-3264.90;91.00;;;;;;5025414;28;20029;-62
2021/01/31 04:20:16;;;;;;;30.80;13.30;;;-3264.90;90.90;;;;;;5020209;28;20107;-62
2021/01/31 04:22:42;;;;;;;31.70;13.80;;;-3264.90;90.80;;;;;;5024912;28;20033;-62
2021/01/31 04:25:08;;;;;;;33.08;15.52;;;-3264.90;90.80;;;;;;5024312;28;20113;-63
2021/01/31 04:27:34;;;;;;;37.65;15.52;;;-3264.90;90.70;;;;;;5027487;28;20115;-63
2021/01/31 04:30:00;;;;;;;33.47;14.32;;;-3265.00;90.50;;;;;;5024162;28;20409;-62
2021/01/31 04:32:25;;;;;;;30.98;13.32;;;-3265.00;90.50;;;;;;5025373;28;20044;-63
2021/01/31 04:34:51;;;;;;;30.10;12.95;;;-3265.00;90.60;;;;;;5023352;28;20045;-63
2021/01/31 04:37:20;;;;;;;32.58;13.18;;;-3265.00;90.60;;;;;;5024369;28;20394;-63
2021/01/31 04:39:46;;;;;;;31.88;12.93;;;-3265.10;90.80;;;;;;5022269;28;20156;-62
2021/01/31 04:42:15;;;;;;;27.10;12.38;;;-3265.10;90.70;;;;;;5010522;28;20044;-63
2021/01/31 04:44:41;;;;;;;27.77;12.98;;;-3265.10;90.60;;;;;;5024072;28;20545;-63
2021/01/31 04:47:13;;;;;;;28.88;12.88;;;-3265.10;90.70;;;;;;5028266;28;20030;-63
2021/01/31 04:49:48;;;;;;;30.88;12.15;;;-3265.20;90.80;;;;;;5011697;28;20022;-63
2021/01/31 04:52:53;;;;;;;27.00;11.30;;;-3265.20;91.00;;;;;;5007902;28;20025;-63
2021/01/31 04:55:34;;;;;;;26.45;11.70;;;-3265.30;91.20;;;;;;4956804;28;20112;-63
2021/01/31 04:58:02;;;;;;;;;;;-3265.40;91.40;;;;;;5028904;28;20037;-63
2021/01/31 05:00:30;;;;;;;24.88;9.80;;;-3265.40;91.40;;;;;;5027403;28;19932;-62
2021/01/31 05:02:59;;;;;;;33.13;10.00;;;-3265.60;91.60;;;;;;5027383;28;20083;-62
2021/01/31 05:05:30;;;;;;;30.65;11.57;;;-3265.70;92.00;;;;;;5026960;28;20021;-62
2021/01/31 05:08:01;;;;;;;32.45;10.32;;;-3265.80;92.60;;;;;;5022449;28;20025;-62
2021/01/31 05:10:27;;;;;;;25.83;11.00;;;-3265.90;92.70;;;;;;5025222;28;20021;-63
2021/01/31 05:13:28;;;;;;;26.67;11.23;;;-3265.90;92.80;;;;;;5031628;28;20025;-62
2021/01/31 05:16:04;;;;;;;31.83;10.93;;;-3265.80;92.60;;;;;;5027113;28;20477;-62
2021/01/31 05:18:32;;;;;;;27.20;10.32;;;-3265.80;92.60;;;;;;5042360;28;20109;-63
2021/01/31 05:21:04;;;;;;;29.30;10.15;;;-3265.80;92.50;;;;;;5033042;28;20394;-63
2021/01/31 05:23:42;;;;;;;25.45;10.13;;;-3265.70;92.30;;;;;;5017968;28;20517;-63
2021/01/31 05:26:10;;;;;;;29.75;11.48;;;-3265.60;92.10;;;;;;5023171;28;20084;-63
2021/01/31 05:28:42;;;;;;;26.45;11.23;;;-3265.60;91.90;;;;;;5025003;28;20029;-63
2021/01/31 05:31:15;;;;;;;22.77;10.35;;;-3265.60;91.90;;;;;;5026611;28;20029;-63
2021/01/31 05:33:52;;;;;;;27.58;8.80;;;-3265.60;91.90;;;;;;5028309;28;20443;-63
2021/01/31 05:36:20;;;;;;;23.50;8.80;;;-3265.70;92.00;;;;;;5026857;28;20022;-63
2021/01/31 05:38:47;;;;;;;19.70;8.10;;;-3265.70;92.50;;;;;;5007418;28;20068;-63
2021/01/31 05:41:28;;;;;;;22.20;9.55;;;-3265.80;92.70;;;;;;5026076;28;20095;-63
2021/01/31 05:44:20;;;;;;;29.70;10.23;;;-3265.90;92.80;;;;;;5027400;28;20115;-63
2021/01/31 05:46:52;;;;;;;22.42;9.45;;;-3265.80;92.60;;;;;;5026057;28;20379;-63
2021/01/31 05:49:33;;;;;;;22.40;8.18;;;-3266.00;92.90;;;;;;5018757;28;20477;-63
2021/01/31 05:51:59;;;;;;;22.77;8.93;;;-3266.20;93.40;;;;;;5022595;28;20033;-62
2021/01/31 05:54:35;;;;;;;22.80;8.75;;;-3266.10;93.30;;;;;;5026306;28;20135;-63
2021/01/31 05:57:01;;;;;;;26.17;10.30;;;-3266.10;93.20;;;;;;5019543;28;20030;-63
2021/01/31 05:59:41;;;;;;;25.00;9.18;;;-3266.20;93.20;;;;;;5022842;28;20474;-63
2021/01/31 06:02:08;;;;;;;25.88;8.80;;;-3266.10;92.80;;;;;;5014511;28;20355;-63
2021/01/31 06:04:34;;;;;;;23.98;8.75;;;-3266.10;92.80;;;;;;5032636;28;20047;-63
2021/01/31 06:07:07;;;;;;;21.45;9.13;;;-3266.10;92.70;;;;;;5025609;28;20044;-63
2021/01/31 06:09:48;;;;;;;23.90;8.98;;;-3266.10;92.50;;;;;;4985273;28;20040;-62
2021/01/31 06:12:20;;;;;;;21.40;9.35;;;-3266.10;92.50;;;;;;5002704;28;20044;-63
2021/01/31 06:14:49;;;;;;;24.27;8.82;;;-3266.00;92.40;;;;;;5007946;28;20037;-63
2021/01/31 06:17:22;;;;;;;23.38;8.55;;;-3266.00;92.30;;;;;;5026400;28;20252;-62
2021/01/31 06:19:56;;;;;;;23.40;8.75;;;-3266.00;92.40;;;;;;5025659;28;20033;-63
2021/01/31 06:22:41;;;;;;;23.17;8.35;;;-3266.00;92.40;;;;;;5027847;28;20035;-63
2021/01/31 06:25:11;;;;;;;21.55;9.50;;;-3265.90;92.30;;;;;;5025775;28;20103;-63
2021/01/31 06:27:37;;;;;;;25.27;9.18;;;-3266.00;92.30;;;;;;5031507;28;20083;-63
2021/01/31 06:30:14;;;;;;;23.23;8.55;;;-3265.90;92.10;;;;;;5021360;28;20022;-63
2021/01/31 06:32:40;;;;;;;26.50;10.07;;;-3265.90;92.00;;;;;;5002863;28;20076;-63
2021/01/31 06:35:10;;;;;;;19.38;8.02;;;-3265.90;92.00;;;;;;5004498;28;20153;-62
2021/01/31 06:38:01;;;;;;;20.52;7.45;;;-3266.00;92.30;;;;;;5004535;28;20038;-62
2021/01/31 06:40:37;;;;;;;;;;;-3266.00;92.60;;;;;;5004883;28;20037;-62
2021/01/31 06:43:37;;;;;;;17.65;8.48;;;-3266.10;92.70;;;;;;5004191;28;19920;-62
2021/01/31 06:46:21;;;;;;;20.87;7.10;;;-3266.00;92.50;;;;;;5003919;28;20560;-63
2021/01/31 06:49:00;;;;;;;21.08;9.15;;;-3266.10;92.70;;;;;;5004722;28;20565;-62
2021/01/31 06:51:44;;;;;;;21.67;9.23;;;-3266.10;92.60;;;;;;4988571;28;20091;-63
2021/01/31 06:54:37;;;;;;;23.27;9.38;;;-3266.10;92.70;;;;;;5003754;28;20520;-62
2021/01/31 06:57:33;;;;;;;22.08;9.20;;;-3266.10;92.80;;;;;;5002702;28;20473;-63
2021/01/31 07:00:33;;;;;;;20.23;8.80;;;-3266.20;92.90;;;;;;5020144;28;20025;-63
2021/01/31 07:03:42;;;;;;;21.92;9.20;;;-3266.30;93.00;;;;;;5031881;28;20031;-63
2021/01/31 07:06:22;;;;;;;19.90;7.40;;;-3266.40;93.10;;;;;;5023275;28;20025;-63
2021/01/31 07:09:00;;;;;;;21.40;8.10;;;-3266.40;93.00;;;;;;5024144;28;20026;-63
2021/01/31 07:14:18;;;;;;;23.20;8.25;;;-3266.30;92.60;;;;;;5063674;28;20052;-62
2021/01/31 07:16:52;;;;;;;19.17;8.32;;;-3266.40;92.70;;;;;;5064078;28;20033;-62
2021/01/31 07:19:46;;;;;;;16.48;7.95;;;-3266.40;92.70;;;;;;5062275;28;20054;-63
2021/01/31 07:22:16;;;;;;;21.63;9.75;;;-3266.30;92.60;;;;;;5062192;28;20085;-63
2021/01/31 07:25:01;;;;;;;20.52;7.78;;;-3266.40;92.80;;;;;;5051348;28;20033;-63
2021/01/31 07:27:45;;;;;;;23.23;8.60;;;-3266.50;92.80;;;;;;5053496;28;20033;-65
2021/01/31 07:30:31;;;;;;;21.27;8.38;;;-3266.50;92.90;;;;;;5047960;28;20032;-64
2021/01/31 07:33:30;;;;;;;17.77;8.25;;;-3266.50;92.90;;;;;;5056582;28;20393;-64
2021/01/31 07:36:19;;;;;;;21.13;8.73;;;-3266.50;92.80;;;;;;5060823;28;20020;-65
2021/01/31 07:39:00;;;;;;;18.58;8.30;;;-3266.60;92.80;;;;;;5054178;28;20254;-64
2021/01/31 07:41:28;;;;;;;22.23;8.80;;;-3266.60;92.90;;;;;;5063642;28;20040;-64
2021/01/31 07:43:58;;;;;;;28.77;9.05;;;-3266.60;92.90;;;;;;5051796;28;20373;-64
2021/01/31 07:46:24;;;;;;;21.52;7.85;;;-3266.80;93.00;;;;;;5062665;28;20024;-64
2021/01/31 07:48:51;;;;;;;23.52;9.80;;;-3266.80;93.00;;;;;;5057510;28;20036;-65
2021/01/31 07:51:26;;;;;;;27.00;9.82;;;-3266.80;92.80;;;;;;5055836;28;20509;-64
2021/01/31 07:53:53;;;;;;;20.40;9.43;;;-3266.90;92.80;;;;;;5052535;28;20032;-65
2021/01/31 07:56:32;;;;;;;22.65;8.93;;;-3266.90;92.80;;;;;;5057680;28;20037;-65
2021/01/31 07:59:20;;;;;;;23.23;9.35;;;-3266.90;92.80;;;;;;5052062;28;20032;-63
2021/01/31 08:01:54;;;;;;;28.83;10.80;;;-3267.00;92.70;;;;;;5066490;28;20393;-65
2021/01/31 08:04:19;;;;;;;36.22;15.18;;;-3267.20;92.80;;;;;;5058995;28;20036;-65
2021/01/31 08:06:52;;;;;;;32.97;11.60;;;-3267.50;93.20;;;;;;5064828;28;20041;-65
2021/01/31 08:09:24;;;;;;;27.52;11.73;;;-3267.60;93.10;;;;;;5060571;28;20423;-64
2021/01/31 08:11:52;;;;;;;24.83;10.57;;;-3267.50;92.80;;;;;;5065232;28;20024;-65
2021/01/31 08:14:55;;;;;;;27.98;11.25;;;-3267.60;92.70;;;;;;5053999;28;20033;-65
2021/01/31 08:17:39;;;;;;;23.63;10.43;;;-3267.60;92.50;;;;;;5063639;28;20116;-65
2021/01/31 08:20:31;;;;;;;25.20;10.05;;;-3267.80;92.40;;;;;;5074653;28;20384;-65
2021/01/31 08:23:24;;;;;;;24.30;11.15;;;-3267.90;92.40;;;;;;5074181;28;20025;-65
2021/01/31 08:25:59;;;;;;;28.30;10.88;;;-3268.00;92.20;;;;;;5067190;28;20515;-65
2021/01/31 08:28:31;;;;;;;27.30;11.65;;;-3268.20;92.30;;;;;;5060660;28;20392;-65
2021/01/31 08:31:02;;;;;;;26.50;11.65;;;-3268.30;92.10;;;;;;5062375;28;20068;-65
2021/01/31 08:33:36;;;;;;;29.58;12.55;;;-3268.60;92.10;;;;;;5052391;28;20301;-65
2021/01/31 08:36:03;;;;;;;31.35;12.90;;;-3268.90;92.30;;;;;;5063645;28;20035;-65
2021/01/31 08:38:29;;;;;;;28.35;12.18;;;-3269.20;92.30;;;;;;5071515;28;20449;-65
2021/01/31 08:41:29;;;;;;;25.45;12.32;;;-3269.30;92.10;;;;;;5061562;28;20102;-65
2021/01/31 08:44:15;;;;;;;;;;;-3269.50;91.50;;;;;;5066342;28;20032;-64
2021/01/31 08:47:01;;;;;;;25.73;11.55;;;-3269.50;90.70;;;;;;5056677;28;20303;-64
2021/01/31 08:49:28;;;;;;;25.20;11.10;;;-3269.80;91.00;;;;;;5052139;28;20233;-64
2021/01/31 08:52:05;;;;;;;27.77;11.85;;;-3269.90;90.70;;;;;;5068338;28;20101;-63
2021/01/31 08:54:31;;;;;;;28.15;11.88;;;-3270.00;90.50;;;;;;5051105;28;20057;-64
2021/01/31 08:56:57;;;;;;;26.30;12.30;;;-3270.30;90.80;;;;;;5055022;28;20017;-64
2021/01/31 08:59:33;;;;;;;28.23;11.90;;;-3270.40;90.70;;;;;;5068094;28;20028;-64
2021/01/31 09:01:58;;;;;;;25.95;11.93;;;-3270.50;90.60;;;;;;5060528;28;20431;-64
2021/01/31 09:04:26;;;;;;;23.42;12.20;;;-3270.50;90.30;;;;;;5068329;28;20021;-64
2021/01/31 09:06:53;;;;;;;25.88;11.90;;;-3270.60;90.40;;;;;;5055019;28;20741;-64
2021/01/31 09:09:26;;;;;;;28.60;12.60;;;-3270.70;90.60;;;;;;5054230;28;20040;-64
2021/01/31 09:11:53;;;;;;;25.95;11.73;;;-3270.80;90.60;;;;;;5065223;28;20434;-64
2021/01/31 09:14:23;;;;;;;26.23;12.50;;;-3270.90;90.60;;;;;;5061666;28;20505;-64
2021/01/31 09:16:49;;;;;;;24.45;11.77;;;-3271.10;90.80;;;;;;5052373;28;20111;-64
2021/01/31 09:19:23;;;;;;;26.02;12.60;;;-3271.20;90.70;;;;;;5054464;28;20833;-64
2021/01/31 09:21:54;;;;;;;22.95;11.57;;;-3271.30;90.70;;;;;;5069175;28;20032;-64
2021/01/31 09:24:22;;;;;;;26.35;13.13;;;-3271.40;90.50;;;;;;5054085;28;20029;-64
2021/01/31 09:26:56;;;;;;;24.60;12.38;;;-3271.50;90.60;;;;;;5051767;28;20048;-64
2021/01/31 09:29:24;;;;;;;22.67;11.63;;;-3271.50;90.50;;;;;;5067391;28;20066;-64
2021/01/31 09:31:57;;;;;;;25.45;11.85;;;-3271.60;90.50;;;;;;5066589;28;20036;-64
2021/01/31 09:34:25;;;;;;;26.55;12.55;;;-3271.50;90.00;;;;;;5062113;28;20134;-64
2021/01/31 09:37:27;;;;;;;26.50;12.05;;;-3271.40;89.90;;;;;;5058416;28;20044;-64
2021/01/31 09:39:55;;;;;;;20.38;10.63;;;-3271.50;90.20;;;;;;5059439;28;20063;-64
2021/01/31 09:42:22;;;;;;;25.05;11.80;;;-3271.40;90.10;;;;;;5057764;28;20028;-64
2021/01/31 09:44:55;;;;;;;25.88;12.18;;;-3271.40;90.50;;;;;;5052351;28;20048;-64
2021/01/31 09:47:21;;;;;;;24.58;12.70;;;-3271.60;90.70;;;;;;5051527;28;20649;-64
2021/01/31 09:49:58;;;;;;;23.83;12.00;;;-3271.80;90.70;;;;;;5056593;28;20029;-64
2021/01/31 09:52:24;;;;;;;22.58;11.13;;;-3271.70;90.10;;;;;;5066146;28;20547;-64
2021/01/31 09:54:50;;;;;;;24.42;12.00;;;-3271.60;90.10;;;;;;5062221;28;20024;-64
2021/01/31 09:57:24;;;;;;;22.00;11.25;;;-3271.60;90.40;;;;;;5056976;28;20115;-64
2021/01/31 10:00:03;;;;;;;24.58;12.20;;;-3271.80;90.50;;;;;;5055531;28;20100;-64
2021/01/31 10:02:31;;;;;;;26.60;12.75;;;-3271.90;90.50;;;;;;5069823;28;20028;-64
2021/01/31 10:05:01;;;;;;;26.13;12.93;;;-3272.10;90.70;;;;;;5070810;28;20519;-64
2021/01/31 10:07:39;;;;;;;24.38;13.32;;;-3272.30;90.80;;;;;;5058555;28;20489;-64
2021/01/31 10:10:30;;;;;;;21.90;12.10;;;-3272.60;90.80;;;;;;5057369;28;20047;-65
2021/01/31 10:13:29;;;;;;;24.05;12.70;;;-3272.60;90.30;;;;;;5063975;28;20032;-64
2021/01/31 10:16:01;;;;;;;25.83;13.00;;;-3272.70;90.10;;;;;;5061523;28;20093;-64
2021/01/31 10:18:35;;;;;;;24.70;13.13;;;-3273.00;90.40;;;;;;5069637;28;20137;-64
2021/01/31 10:21:20;;;;;;;24.63;13.65;;;-3273.00;89.80;;;;;;5054242;28;20052;-65
2021/01/31 10:23:47;;;;;;;24.80;12.85;;;-3273.30;90.50;;;;;;5062815;28;20032;-64
2021/01/31 10:26:18;;;;;;;21.88;11.82;;;-3273.40;90.00;;;;;;5071072;28;20032;-64
2021/01/31 10:28:45;;;;;;;;;;;-3273.50;89.30;;;;;;5053684;28;20032;-64
2021/01/31 10:31:32;;;;;;;23.90;11.88;;;-3273.50;88.80;;;;;;5055084;28;20046;-65
2021/01/31 10:33:59;;;;;;;23.38;11.68;;;-3273.90;89.90;;;;;;5060535;28;20174;-65
2021/01/31 10:36:30;;;;;;;22.30;12.18;;;-3274.00;89.40;;;;;;5052465;28;20035;-64
2021/01/31 10:39:03;;;;;;;22.27;11.45;;;-3274.20;88.50;;;;;;5061184;28;20028;-64
2021/01/31 10:41:29;;;;;;;24.85;12.73;;;-3274.20;87.60;;;;;;5051857;28;20804;-64
2021/01/31 10:44:06;;;;;;;24.17;12.25;;;-3274.40;87.80;;;;;;5047274;28;20119;-64
2021/01/31 10:46:33;;;;;;;24.55;12.27;;;-3274.50;88.10;;;;;;5044691;28;20123;-64
2021/01/31 10:48:59;;;;;;;22.83;13.30;;;-3274.60;87.70;;;;;;5047108;28;20033;-64
2021/01/31 10:51:32;;;;;;;23.05;12.25;;;-3274.70;86.80;;;;;;5059350;28;20022;-65
2021/01/31 10:53:58;;;;;;;24.02;12.00;;;-3274.80;87.10;;;;;;5066319;28;20029;-64
2021/01/31 10:56:25;;;;;;;23.38;12.43;;;-3274.90;86.70;;;;;;5057976;28;20104;-65
2021/01/31 10:58:51;;;;;;;25.50;12.68;;;-3275.00;86.50;;;;;;5050077;28;20033;-65
2021/01/31 11:01:17;;;;;;;20.30;11.57;;;-3275.30;86.20;;;;;;5057957;28;20031;-65
2021/01/31 11:03:43;;;;;;;21.75;12.15;;;-3275.30;86.70;;;;;;5067352;28;20412;-64
2021/01/31 11:06:09;;;;;;;20.92;11.65;;;-3275.40;85.90;;;;;;5054747;28;20104;-65
2021/01/31 11:08:34;;;;;;;23.65;13.18;;;-3275.60;86.00;;;;;;5058440;28;20119;-64
2021/01/31 11:11:00;;;;;;;22.75;12.02;;;-3275.70;85.70;;;;;;5054569;28;20500;-65
2021/01/31 11:13:26;;;;;;;20.80;12.57;;;-3275.70;85.00;;;;;;5068619;28;20107;-65
2021/01/31 11:15:53;;;;;;;19.13;10.63;;;-3276.00;85.30;;;;;;5057809;28;20039;-65
2021/01/31 11:18:18;;;;;;;20.20;11.23;;;-3276.20;84.40;;;;;;5066791;28;20032;-65
2021/01/31 11:20:45;;;;;;;21.38;11.55;;;-3276.50;84.60;;;;;;5074177;28;20396;-65
2021/01/31 11:23:10;;;;;;;20.20;11.63;;;-3276.40;84.20;;;;;;5078055;28;20488;-66
2021/01/31 11:25:36;;;;;;;17.73;10.95;;;0.00;82.80;;;;;;5058751;28;20040;-65
2021/01/31 11:28:02;;;;;;;18.75;10.73;;;0.10;82.30;;;;;;5050844;28;20055;-65
2021/01/31 11:30:29;;;;;;;18.33;10.65;;;0.00;81.90;;;;;;5061895;28;20024;-65
2021/01/31 11:32:55;;;;;;;17.63;10.00;;;0.30;81.50;;;;;;5073352;28;20055;-66
2021/01/31 11:35:22;;;;;;;17.33;10.70;;;0.50;81.80;;;;;;5055575;28;20036;-66
2021/01/31 11:37:47;;;;;;;17.85;10.52;;;0.40;81.00;;;;;;5048967;28;20589;-65
2021/01/31 11:40:13;;;;;;;16.42;10.13;;;0.70;80.50;;;;;;5057862;28;20056;-65
2021/01/31 11:42:39;;;;;;;17.38;10.38;;;1.00;80.50;;;;;;5053422;28;20127;-66
2021/01/31 11:45:06;;;;;;;16.10;9.20;;;1.10;80.20;;;;;;5060831;28;20031;-66
2021/01/31 11:47:33;;;;;;;16.30;9.70;;;0.80;78.80;;;;;;5074075;28;20032;-66
2021/01/31 11:50:00;;;;;;;16.15;9.23;;;1.00;79.50;;;;;;5064626;28;20024;-67
2021/01/31 11:52:26;;;;;;;14.70;8.60;;;1.20;79.30;;;;;;5071447;28;20099;-65
2021/01/31 11:54:52;;;;;;;13.98;8.85;;;1.20;78.10;;;;;;5059894;28;20073;-65
2021/01/31 11:57:17;;;;;;;17.33;10.32;;;1.60;77.40;;;;;;5060291;28;20489;-65
2021/01/31 11:59:43;;;;;;;15.52;9.55;;;1.30;77.80;;;;;;5064247;28;20044;-65
2021/01/31 12:02:09;;;;;;;14.55;9.48;;;1.60;77.80;;;;;;5067230;28;20492;-65
2021/01/31 12:04:34;;;;;;;16.88;9.50;;;2.20;77.40;;;;;;5081010;28;20516;-65
2021/01/31 12:07:00;;;;;;;15.75;10.68;;;2.10;74.80;;;;;;5071557;28;20036;-64
2021/01/31 12:09:26;;;;;;;17.45;9.48;;;2.20;74.50;;;;;;5059859;28;20032;-65
2021/01/31 12:11:51;;;;;;;12.70;7.93;;;2.40;76.10;;;;;;5071089;28;20053;-65
2021/01/31 12:14:17;;;;;;;13.38;8.52;;;2.00;75.50;;;;;;5052759;28;20029;-65
2021/01/31 12:16:43;;;;;;;16.30;9.93;;;2.10;76.90;;;;;;5064319;28;20726;-64
2021/01/31 12:19:09;;;;;;;17.08;11.50;;;2.10;75.40;;;;;;5055490;28;20021;-65
2021/01/31 12:21:34;;;;;;;14.25;8.52;;;2.20;77.50;;;;;;5062893;28;20036;-66
2021/01/31 12:24:00;;;;;;;15.85;10.63;;;2.30;76.10;;;;;;5052135;28;20025;-66
2021/01/31 12:26:26;;;;;;;14.98;10.85;;;2.50;75.60;;;;;;5061264;28;20048;-69
2021/01/31 12:28:51;;;;;;;14.20;8.52;;;2.50;76.30;;;;;;5053830;28;20029;-66
2021/01/31 12:31:17;;;;;;;16.17;11.13;;;2.40;74.80;;;;;;5049664;28;20035;-66
2021/01/31 12:33:43;;;;;;;14.93;9.48;;;2.20;75.40;;;;;;5064142;28;20052;-67
2021/01/31 12:36:09;;;;;;;15.50;9.27;;;2.20;75.30;;;;;;5049289;28;20424;-66